Погода Мингунна 2 недели

Мандалай, Мьянма

03 - 16 марта
  • 03марта
    Сегодня
    +20°
    +37°
    Ясно и безоблачно
    ВремяПогодаТемператураВлажностьДавлениеВетер, м/сВероятность осадков
    00:30Ясно и безоблачно+25°C56 %751 мм1.2 м/с2 %
    03:30Ясно и безоблачно+23°C62 %751 мм1.9 м/с2 %
    06:30Ясно и безоблачно+21°C58 %752 мм0.3 м/с2 %
    09:30Ясно и безоблачно+28°C41 %753 мм1.2 м/с2 %
    12:30Ясно и безоблачно+34°C24 %752 мм1.5 м/с2 %
    15:30Ясно и безоблачно+37°C24 %749 мм1.6 м/с2 %
    18:30Ясно и безоблачно+32°C35 %749 мм0.5 м/с2 %
    21:30Ясно и безоблачно+28°C44 %750 мм1.4 м/с2 %
  • 04марта
    Понедельник
    +21°
    +38°
    Ясно и безоблачно
    ВремяПогодаТемператураВлажностьДавлениеВетер, м/сВероятность осадков
    00:30Ясно и безоблачно+26°C52 %750 мм1.5 м/с2 %
    03:30Ясно и безоблачно+22°C59 %750 мм1.6 м/с2 %
    06:30Ясно и безоблачно+21°C62 %751 мм0.3 м/с2 %
    09:30Ясно и безоблачно+28°C39 %753 мм0.6 м/с2 %
    12:30Ясно и безоблачно+34°C25 %752 мм1.0 м/с2 %
    15:30Ясно и безоблачно+37°C23 %749 мм1.3 м/с2 %
    18:30Ясно и безоблачно+33°C38 %749 мм0.5 м/с2 %
    21:30Ясно и безоблачно+29°C43 %751 мм1.6 м/с2 %
  • 05марта
    Вторник
    +22°
    +39°
    Ясно и безоблачно
    ВремяПогодаТемператураВлажностьДавлениеВетер, м/сВероятность осадков
    00:30Ясно и безоблачно+27°C46 %750 мм1.8 м/с2 %
    03:30Ясно и безоблачно+24°C61 %750 мм0.7 м/с2 %
    06:30Ясно и безоблачно+22°C56 %751 мм0.4 м/с2 %
    09:30Ясно и безоблачно+28°C40 %753 мм0.6 м/с2 %
    12:30Ясно и безоблачно+35°C25 %751 мм1.0 м/с2 %
    15:30Ясно и безоблачно+38°C22 %749 мм1.6 м/с2 %
    18:30Ясно и безоблачно+34°C33 %749 мм0.6 м/с2 %
    21:30Ясно и безоблачно+31°C37 %750 мм2.2 м/с2 %
  • 06марта
    Среда
    +20°
    +39°
    Ясно и безоблачно
    ВремяПогодаТемператураВлажностьДавлениеВетер, м/сВероятность осадков
    00:30Ясно и безоблачно+27°C46 %749 мм2.6 м/с2 %
    03:30Ясно и безоблачно+25°C53 %749 мм3.1 м/с2 %
    06:30Ясно и безоблачно+23°C58 %751 мм0.5 м/с2 %
    09:30Ясно и безоблачно+30°C38 %753 мм1.4 м/с2 %
    12:30Ясно и безоблачно+36°C18 %751 мм1.8 м/с2 %
    15:30Ясно и безоблачно+39°C16 %749 мм1.8 м/с2 %
    18:30Ясно и безоблачно+33°C31 %749 мм0.5 м/с2 %
    21:30Ясно и безоблачно+26°C37 %750 мм1.6 м/с2 %
  • 07марта
    Четверг
    +19°
    +39°
    Ясно и безоблачно
    ВремяПогодаТемператураВлажностьДавлениеВетер, м/сВероятность осадков
    00:30Ясно и безоблачно+22°C43 %749 мм1.5 м/с2 %
    03:30Ясно и безоблачно+22°C40 %748 мм1.9 м/с2 %
    06:30Ясно и безоблачно+21°C54 %750 мм0.1 м/с2 %
    09:30Ясно и безоблачно+28°C37 %752 мм0.6 м/с2 %
    12:30Ясно и безоблачно+35°C19 %751 мм1.2 м/с2 %
    15:30Ясно и безоблачно+39°C14 %749 мм1.6 м/с2 %
    18:30Ясно и безоблачно+33°C30 %749 мм0.7 м/с2 %
    21:30Ясно и безоблачно+27°C33 %750 мм1.4 м/с2 %
Мы используем cookies
Соглашаюсь